Port Isabel, TX

2:48 AM CDT on April 30, 2017 (GMT -0500)
Port Isabel-Cameron County | | Change Station
Active Advisory: Wind Advisory

Elev 16 ft 26.17 °N, 97.35 °W | Updated 18 minutes ago

Overcast
Overcast
71 °F
Feels Like 71 °F
N
30
Wind Variable Wind from North
Gusts 41 mph

Today
High -- | Low -- °F
--% Chance of Precip.
Yesterday
High -- | Low -- °F
Precip. -- in
Pressure 29.75 in
Visibility 9.0 miles
Clouds Few 2500 ft
Mostly Cloudy 3200 ft
Overcast 5000 ft
Dew Point 58 °F
Humidity 63%
Rainfall 0.00 in
Snow Depth Not available.
6:52 AM 8:00 PM
Waxing Crescent, 20% visible
SPECI KPIL 300730Z AUTO 35026G36KT 9SM FEW025 BKN032 OVC050 22/14 A2975 RMK AO2 PK WND 35038/0715 RAB14E26 P0000 T02170144
Pressure 29.75 in
Visibility 9.0 miles
Clouds Few 2500 ft
Mostly Cloudy 3200 ft
Overcast 5000 ft
Dew Point 58 °F
Humidity 63%
Rainfall 0.00 in
Snow Depth Not available.
6:52 AM 8:00 PM
Waxing Crescent, 20% visible
SPECI KPIL 300730Z AUTO 35026G36KT 9SM FEW025 BKN032 OVC050 22/14 A2975 RMK AO2 PK WND 35038/0715 RAB14E26 P0000 T02170144

Get Your Daily Forecast Email!

Thanks for signing up!

Be on the lookout for a verification email in your inbox.

You'll start receiving severe weather alerts in your inbox..

×

10-Day Weather Forecast

Almanac

Astronomy

Apr. 30, 2017 Rise Set
Actual Time
Civil Twilight
Nautical Twilight
Astronomical Twilight
Moon
Length of Visible Light
Length of Day
Tomorrow will be .
, % of the Moon is Illuminated

Today's Extremes

State Highs State Lows

Community

WunderPhotos

WunderBlog® & News

Nearby

Air Quality

  Air Quality AQ Index Pollutant
Not available.

Snow Depth

Station Depth Elevation

Earthquake Activity

City Distance Mag. Time & Date
Minimum magnitude displayed is 2.5.

Coastal Water Temperatures

Place Temperature

Stations

Nearby Weather Stations

Station Location Temp. Windchill Dew Point Humidity Wind Precip. Elev Updated Type
                   

Watches & Warnings

Wind Advisory
Issued: 11:37 PM CDT Apr. 29, 2017 – National Weather Service

... Wind Advisory in effect until 5 am CDT Sunday...

The National Weather Service in Brownsville has issued a Wind
Advisory, which is in effect until 5 am CDT Sunday.

* Timing... 2am to 5am.

* Winds... north to northwest at 30 mph with gusts to 45 mph.

* Impacts... high profile or light weight vehicles will be
difficult to drive... especially on bridges or overpasses and in
cross winds.

Precautionary/preparedness actions...

A Wind Advisory means that winds of 30 to 39 mph are expected.
Winds this strong can make driving difficult... especially for
high profile vehicles. Use extra caution.



53